Airfield :
LOGIN :

Register | Disclaimer

   EN    FR    IT 

 










Legend :    VFR   Marginal VFR   IFR   Intensive IFR   Very Intensive IFR
Visi :
Ceiling :
>= 8 km
>= 3000ft
5 to 8 km
1000 to 3000 ft
1500m to 5 km
500 to 1000 ft
800 to 1500m
200 to 500 ft
< 800m
< 200 ft
Symbols :   Thunderstorms  Fog  Heavy snow  Heavy precipitations  Wind > 20 kt
SIGMETs :     Misc.  Thunderstorms  Icing  Turbulence  Mountain Waves  Volcanic Ashes






- Airport Elevation : 144 ft
- IATA code : PGF


LFMP - Perpignan

CURRENT METAR :
  • 291200Z AUTO 30009KT 260V340 CAVOK 16/05 Q1021 NOSIG

EXPIRED METARs :
  • 291130Z AUTO 30012KT 270V330 CAVOK 15/05 Q1021 NOSIG
  • 291100Z AUTO 31010KT 290V350 CAVOK 15/05 Q1022 NOSIG
  • 291030Z AUTO 30007KT 270V340 9999 FEW045 15/06 Q1022 NOSIG
  • 291000Z AUTO 26004KT 210V310 CAVOK 14/06 Q1022 NOSIG
  • 290930Z AUTO 24006KT 210V280 CAVOK 13/05 Q1022 NOSIG

TAF TAF LFMP
Valid from the 29 at 09:00 until the 30 at 09:00 UTC


290800Z 2909/3009 VRB05KT CAVOK
BECMG 3007/3009 BKN012
ATIS : +33 4 68 63 75 12



MET'MAP, your aeronautical weather chart ! - Copyright ORBIFLY December 2007 - Disclaimer

ORBIFLY MET'MAP TEAM :

Programming & Development : Alexandra Zaïnal
Concept & original design : Baudouin d'Aumeries
Assistance for programming : Marc-Olivier Méhu
Technical & hardware support : Manuel Goepfert

Contact : metmap@orbifly.com




SOURCES & CREDITS :

   NOAA